Airfield :
LOGIN :

Register | Disclaimer

   EN    FR    IT 

 










Legend :    VFR   Marginal VFR   IFR   Intensive IFR   Very Intensive IFR
Visi :
Ceiling :
>= 8 km
>= 3000ft
5 to 8 km
1000 to 3000 ft
1500m to 5 km
500 to 1000 ft
800 to 1500m
200 to 500 ft
< 800m
< 200 ft
Symbols :   Thunderstorms  Fog  Heavy snow  Heavy precipitations  Wind > 20 kt
SIGMETs :     Misc.  Thunderstorms  Icing  Turbulence  Mountain Waves  Volcanic Ashes






- Airport Elevation : 348 ft
- IATA code : STN


EGSS - London Stansted

CURRENT METAR :
  • 190950Z 13004KT 070V200 7000 NSC 20/16 Q1014

EXPIRED METARs :
  • 190920Z AUTO 13006KT 6000 NCD 19/16 Q1014
  • 190850Z AUTO VRB03KT 5000 HZ NCD 18/16 Q1014
  • 190820Z AUTO VRB03KT 4500 HZ NCD 17/16 Q1014
  • 190750Z AUTO VRB03KT 4900 HZ NCD 17/15 Q1014
  • 190720Z AUTO 09005KT 4000 HZ NCD 16/15 Q1013

TAF TAF EGSS
Valid from the 19 at 06:00 until the 20 at 12:00 UTC


190459Z 1906/2012 12006KT 3000 BR FEW040
BECMG 1906/1909 9999 NSW
TEMPO 1909/2002 6000 RA SHRA
PROB40
TEMPO 1911/2001 4000 +SHRA BKN008
BECMG 1912/1915 30010KT
BECMG 2001/2004 SCT004 BKN008
PROB40 2003/2010 3000 BR BKN004
BECMG 2010/2012 SCT025
ATIS : +44 1279 669 325



MET'MAP, your aeronautical weather chart ! - Copyright ORBIFLY December 2007 - Disclaimer

ORBIFLY MET'MAP TEAM :

Programming & Development : Alexandra Zaïnal
Concept & original design : Baudouin d'Aumeries
Assistance for programming : Marc-Olivier Méhu
Technical & hardware support : Manuel Goepfert

Contact : metmap@orbifly.com




SOURCES & CREDITS :

   NOAA